Tribune, Kansas
Current Conditions -  °F | °C
As of 4:35 AM on Wednesday 22 Oct 2014 (Local Time) from K3K3 Reporting Station
Scattered Clouds Scattered Clouds  
Wind Chill: 54°   Ceiling: Unl
Heat Index: 54°   Visibility: 10mi
Dew Point: 50°   Wind: 8mph
Humidity: 88%   Direction: 110°ESE
Pressure: 29.97"   Gusts: NA
Location:  38.47°N, 101.75°W
Report Text: K3K3 220935Z AUTO 11007KT 10SM SCT110 12/10 A2997 RMK AO2
Loading
Personal Weather Stations






























Interactive Weather Map
Tropical Storm Tracking
New forecast layout! Learn more

10-Day Weather Forecast

Advertisements
Track Severe Weather on mobile